Внимание: Жълт код за сняг и поледици

Предупреждението важи за цялата страна
Обновена: 3 яну 2016 08:07 | 3 яну 2016 08:07, Веселина Йорданова
7
Внимание: Жълт код за сняг и поледици
Снимка: архив, БулФото

Жълт код за сняг и поледици е обявен за цялата страна за днес на сайта на Националния институт по метеорология и хидрология (НИМХ) при БАН.

В цялата страна ще вали сняг, като почти навсякъде ще се образува снежна покривка предимно между 10 и 15 см. В областите Добрич, Бургас и Варна валежите ще са от дъжд и сняг, като ще има условия за заледявания и поледици.

В област Кърджали ще вали сняг и ще се образува снежна покривка около и над 10 см, а привечер вятърът от север ще се усили и ще бъде с пориви до 20 м/сек.

В област Благоевград ще вали сняг, който след обяд ще премине в дъжд, като има условия за заледявания и поледици.

Времето над страната ще бъде облачно със снеговалеж, който през деня ще се усили. Ще духа до умерен, в Дунавската равнина и по Черноморието до силен вятър от изток-североизток, според прогнозата на НИМХ.

Максималните температури ще са в широки граници: от минус 7° в Северна България до плюс 3° по морския бряг и в югозападните райони. Атмосферното налягане в сутрешните часове е близко до средното за месеца и през деня ще се понижава.

По Черноморието ще вали сняг. Ще духа умерен североизточен вятър. След обяд, вятърът ще се ориентира от изток и ще се усили. Снегът ще премине в дъжд и ще се създадат условия за заледявания и поледици. Максималните температури ще са между 1° и 3°. Температурата на морската вода е 6°-9°. Вълнението на морето ще бъде 2-3 бала.

Над планините ще е облачно с валежи от сняг. Ще духа умерен предимно южен вятър, по най-високите части силен от запад-северозапад. Максимална температура на височина 1200 метра около минус 1°, на 2000 метра – около минус 5°.


7
Още от
Напиши коментар Коментари
5
0
 
1
 
! Отговори
Жан Габен преди 2 години
Бе не знам, ама по обед в Североизточна България беше -11. На телефона ми пишеше -11, усеща се като -20. Сигурно заради вятъра, не знам. Ама си е доста студеничко все още. Печаката в нас годи а е едва 23 градуса... Няма стопляне, ей
4
0
 
0
 
! Отговори
хлъц преди 2 години
Внимание ! Жълтият сняг НЕ се яде !
3
0
 
2
 
! Отговори
Анонимен преди 2 години
METAR LBSF 030930Z 10018KT 3300 -SN BKN026 OVC034 M07/M10 Q1016 R99/19//95 TEMPO 2000 SN= Къде на 1200 метра видехте -1 на 2000 м минус 5 в момента е минус 8 на летището в София и вятъра е 18 възела или 33/34 км/час или 9 м/сек
METAR LBBG 030930Z 04010KT 9999 -SN BKN026 OVC036 M08/M11 Q1024 NOSIG= В Бургас е минус 8
METAR LBWN 030930Z 22005KT 150V290 7000 -SN SCT025 BKN033 M09/M13 Q1025 NOSIG= в Варна минус 9 От къде ги вадите тея прогнози?
2
0
 
7
 
! Отговори
Дърт Крейзър преди 2 години
дано не обявят "кафяв код " ,че тогава я оплескахме
1
0
 
3
 
! Отговори
Анонимен преди 2 години
у моменто на Боровец грее слънце!